Poy Sippi, WI (54967)

4:42 PM CST on February 24, 2017 (GMT -0600)
KWILARSE2 | | Change Station
Active Advisory: Winter Weather Advisory Active Notice: Public Information Statement

Elev 792 ft 44.17 °N, 88.77 °W | Updated 1 minute ago

Overcast
Overcast
28.2 °F
Feels Like 19 °F
N
10.0
Wind Variable Wind from NE
Gusts 13.0 mph

Today
High -- | Low -- °F
--% Chance of Precip.
Yesterday
High -- | Low -- °F
Precip. -- in
Pressure 29.60 in
Visibility 2.0 miles
Clouds Overcast 800 ft
Windchill 19 °F
Dew Point 27 °F
Humidity 94%
Rainfall 0.00 in
Snow Depth Not available.
6:40 AM 5:38 PM
Waning Crescent, 3% visible
METAR KPCZ 242235Z AUTO 36007KT 2SM BR OVC008 M02/M04 A2960 RMK AO2 T10201037
Pressure 29.60 in
Visibility 2.0 miles
Clouds Overcast 800 ft
Windchill 19 °F
Dew Point 27 °F
Humidity 94%
Rainfall 0.00 in
Snow Depth Not available.
6:40 AM 5:38 PM
Waning Crescent, 3% visible
METAR KPCZ 242235Z AUTO 36007KT 2SM BR OVC008 M02/M04 A2960 RMK AO2 T10201037

Get Your Daily Forecast Email!

Thanks for signing up!

Be on the lookout for a verification email in your inbox.

You'll start receiving the daily forecast at 8 AM.

×

10-Day Weather Forecast

Almanac

Astronomy

Feb. 24, 2017 Rise Set
Actual Time
Civil Twilight
Nautical Twilight
Astronomical Twilight
Moon
Length of Visible Light
Length of Day
Tomorrow will be .
, % of the Moon is Illuminated

Today's Extremes

State Highs State Lows

Community

WunderPhotos

Upload Photos

1,962,540 photos uploaded!

WunderBlog® & News

Nearby

Air Quality

  Air Quality AQ Index Pollutant
Not available.

Snow Depth

Station Depth Elevation

Earthquake Activity

City Distance Mag. Time & Date
Minimum magnitude displayed is 2.5.

Coastal Water Temperatures

Place Temperature

Stations

Nearby Weather Stations

Station Location Temp. Windchill Dew Point Humidity Wind Precip. Elev Updated Type
                   

Watches & Warnings

Winter Weather Advisory
Issued: 3:15 PM CST Feb. 24, 2017 – National Weather Service

... Winter Weather Advisory remains in effect until 6 am CST
Saturday...

* a wintry mix of drizzle, freezing drizzle and snow will
gradually transition to all snow this evening. The snow is
expected to linger through Saturday morning before diminishing.

* Additional snow accumulation of 1 to 2 inches is expected. Minor
icing is possible as well.

* Hazardous travel is expected through tonight. The combination of
snow and blustery north to northwest winds will create some
blowing and drifting of the snow.

Precautionary/preparedness actions...

Winter Weather Advisory means that periods of snow or freezing
drizzle will cause travel difficulties. Be prepared for slippery
roads and limited visibilities, and use caution while driving. The
latest Wisconsin Road conditions can be obtained by calling 511.



AK